createdAt,value
2019-04-07T00:00:44.384Z,39.85
2019-04-07T00:03:14.279Z,40.73
2019-04-07T00:05:48.272Z,38.95
2019-04-07T00:08:19.018Z,39.42
2019-04-07T00:10:50.767Z,38.80
2019-04-07T00:13:21.287Z,36.63
2019-04-07T00:15:51.180Z,34.98
2019-04-07T00:18:21.020Z,34.63
2019-04-07T00:20:51.209Z,32.78
2019-04-07T00:23:21.348Z,32.70
2019-04-07T00:25:51.444Z,33.73
2019-04-07T00:28:24.495Z,34.33
2019-04-07T00:30:58.828Z,34.98
2019-04-07T00:33:28.905Z,34.30
2019-04-07T00:36:01.167Z,33.60
2019-04-07T00:38:31.654Z,36.17
2019-04-07T00:41:04.545Z,35.70
2019-04-07T00:43:35.191Z,37.08
2019-04-07T00:46:05.635Z,37.78
2019-04-07T00:48:36.480Z,36.10
2019-04-07T00:51:06.832Z,35.85
2019-04-07T00:53:36.731Z,36.90
2019-04-07T00:56:06.674Z,38.15
2019-04-07T00:58:37.189Z,38.60
2019-04-07T01:01:09.065Z,41.40
2019-04-07T01:03:39.519Z,41.45
2019-04-07T01:06:09.874Z,39.45
2019-04-07T01:08:40.612Z,38.90
2019-04-07T01:11:10.495Z,39.78
2019-04-07T01:13:40.820Z,40.15
2019-04-07T01:16:11.158Z,39.67
2019-04-07T01:18:44.331Z,40.40
2019-04-07T01:21:17.053Z,43.87
2019-04-07T01:23:47.894Z,43.87
2019-04-07T01:26:18.542Z,41.20
2019-04-07T01:28:49.181Z,39.60
2019-04-07T01:31:19.831Z,41.42
2019-04-07T01:33:50.922Z,41.70
2019-04-07T01:36:21.602Z,42.23
2019-04-07T01:38:56.615Z,40.58
2019-04-07T01:41:28.311Z,38.02
2019-04-07T01:44:00.233Z,41.13
2019-04-07T01:46:33.868Z,41.50
2019-04-07T01:49:11.893Z,40.03
2019-04-07T01:51:49.668Z,39.00
2019-04-07T01:54:40.080Z,38.30
2019-04-07T01:57:23.785Z,38.83
2019-04-07T02:00:01.931Z,41.95
2019-04-07T02:02:43.308Z,42.45
2019-04-07T02:05:20.893Z,44.42
2019-04-07T02:08:09.411Z,42.48
2019-04-07T02:10:49.779Z,43.05
2019-04-07T02:13:24.724Z,41.25
2019-04-07T02:16:05.071Z,44.40
2019-04-07T02:18:53.436Z,45.90
2019-04-07T02:21:28.245Z,51.35
2019-04-07T02:24:16.237Z,50.58
2019-04-07T02:29:49.069Z,47.38
2019-04-07T02:32:24.626Z,45.65
2019-04-07T02:34:57.430Z,47.17
2019-04-07T02:37:48.154Z,49.88
2019-04-07T02:40:34.200Z,50.75
2019-04-07T02:43:19.326Z,50.83
2019-04-07T02:45:51.448Z,50.43
2019-04-07T02:48:39.523Z,47.85
2019-04-07T02:51:15.252Z,48.98
2019-04-07T02:53:47.030Z,48.05
2019-04-07T02:56:33.934Z,49.50
2019-04-07T02:59:08.581Z,50.58
2019-04-07T03:01:49.780Z,46.75
2019-04-07T03:04:27.410Z,49.18
2019-04-07T03:07:10.417Z,47.67
2019-04-07T03:09:45.469Z,48.58
2019-04-07T03:12:17.803Z,50.65
2019-04-07T03:14:49.424Z,51.42
2019-04-07T03:17:25.648Z,48.60
2019-04-07T03:19:57.482Z,47.98
2019-04-07T03:22:44.575Z,48.48
2019-04-07T03:25:21.741Z,52.20
2019-04-07T03:27:57.116Z,50.55
2019-04-07T03:30:37.507Z,48.40
2019-04-07T03:33:25.290Z,47.50
2019-04-07T03:36:05.158Z,50.00
2019-04-07T03:38:39.192Z,51.13
2019-04-07T03:41:13.555Z,51.02
2019-04-07T03:43:48.296Z,50.63
2019-04-07T03:46:21.574Z,49.80
2019-04-07T03:49:11.232Z,48.10
2019-04-07T03:51:49.736Z,47.60
2019-04-07T03:54:27.142Z,44.73
2019-04-07T03:57:11.226Z,43.42
2019-04-07T03:59:43.015Z,43.13
2019-04-07T04:02:29.671Z,43.80
2019-04-07T04:05:16.065Z,41.40
2019-04-07T04:07:54.634Z,45.38
2019-04-07T04:10:41.237Z,43.25
2019-04-07T04:13:16.491Z,43.05
2019-04-07T04:15:50.067Z,41.02
2019-04-07T04:18:20.572Z,42.08
2019-04-07T04:20:50.531Z,41.80
2019-04-07T04:23:20.371Z,41.92
2019-04-07T04:25:50.154Z,43.58
2019-04-07T04:28:20.345Z,43.35
2019-04-07T04:30:50.978Z,44.05
2019-04-07T04:33:20.837Z,42.27
2019-04-07T04:35:51.679Z,43.45
2019-04-07T04:38:22.037Z,46.37
2019-04-07T04:40:52.753Z,46.37
2019-04-07T04:43:23.371Z,45.58
2019-04-07T04:45:53.571Z,46.30
2019-04-07T04:48:24.268Z,43.92
2019-04-07T04:50:54.040Z,44.03
2019-04-07T04:53:24.249Z,45.08
2019-04-07T04:55:54.272Z,43.55
2019-04-07T04:58:24.765Z,43.83
2019-04-07T05:00:54.792Z,40.50
2019-04-07T05:03:24.943Z,41.53
2019-04-07T05:05:55.406Z,37.83
2019-04-07T05:08:29.778Z,40.90
2019-04-07T05:10:59.968Z,39.15
2019-04-07T05:13:30.611Z,40.65
2019-04-07T05:16:01.648Z,37.90
2019-04-07T05:18:31.460Z,36.93
2019-04-07T05:21:02.284Z,34.75
2019-04-07T05:23:32.625Z,35.75
2019-04-07T05:26:03.544Z,37.25
2019-04-07T05:28:36.782Z,36.30
2019-04-07T05:31:05.648Z,37.42
2019-04-07T05:33:35.588Z,36.30
2019-04-07T05:36:05.930Z,37.83
2019-04-07T05:38:36.642Z,37.83
2019-04-07T05:41:06.566Z,35.73
2019-04-07T05:43:36.899Z,35.70
2019-04-07T05:46:08.021Z,36.88
2019-04-07T05:48:39.180Z,34.67
2019-04-07T05:51:09.729Z,36.17
2019-04-07T05:53:39.941Z,36.93
2019-04-07T05:56:09.967Z,35.65
2019-04-07T05:58:41.093Z,36.85
2019-04-07T06:01:11.719Z,37.13
2019-04-07T06:03:43.419Z,38.67
2019-04-07T06:06:13.480Z,37.33
2019-04-07T06:08:46.800Z,38.08
2019-04-07T06:11:14.843Z,39.55
2019-04-07T06:13:44.920Z,38.28
2019-04-07T06:16:15.450Z,37.48
2019-04-07T06:18:45.390Z,37.75
2019-04-07T06:21:16.167Z,35.43
2019-04-07T06:23:46.526Z,35.78
2019-04-07T06:26:17.309Z,34.88
2019-04-07T06:28:51.551Z,36.15
2019-04-07T06:31:19.623Z,35.15
2019-04-07T06:33:49.981Z,33.42
2019-04-07T06:36:26.031Z,33.30
2019-04-07T06:38:54.798Z,34.43
2019-04-07T06:41:29.505Z,30.77
2019-04-07T06:44:09.527Z,30.57
2019-04-07T06:46:29.587Z,32.45
2019-04-07T06:49:01.586Z,32.33
2019-04-07T06:51:45.060Z,31.52
2019-04-07T06:54:28.714Z,33.10
2019-04-07T06:57:17.371Z,32.25
2019-04-07T07:00:04.154Z,32.35
2019-04-07T07:02:47.817Z,30.62
2019-04-07T07:05:36.206Z,32.90
2019-04-07T07:08:21.769Z,32.33
2019-04-07T07:11:05.790Z,32.83
2019-04-07T07:13:41.357Z,32.73
2019-04-07T07:16:14.776Z,33.75
2019-04-07T07:18:51.761Z,33.88
2019-04-07T07:21:36.447Z,32.35
2019-04-07T07:24:03.541Z,31.48
2019-04-07T07:26:35.328Z,31.80
2019-04-07T07:29:06.376Z,33.00
2019-04-07T07:31:36.916Z,30.40
2019-04-07T07:34:09.376Z,31.52
2019-04-07T07:36:38.314Z,29.77
2019-04-07T07:39:11.432Z,30.08
2019-04-07T07:41:39.982Z,32.13
2019-04-07T07:44:09.847Z,31.85
2019-04-07T07:46:39.755Z,30.48
2019-04-07T07:49:09.480Z,32.00
2019-04-07T07:51:39.810Z,32.25
2019-04-07T07:54:11.120Z,32.10
2019-04-07T07:56:42.449Z,34.73
2019-04-07T07:59:12.469Z,34.65
2019-04-07T08:01:46.237Z,32.95
2019-04-07T08:04:15.175Z,33.33
2019-04-07T08:06:45.151Z,32.15
2019-04-07T08:09:18.693Z,33.35
2019-04-07T08:11:48.960Z,31.40
2019-04-07T08:14:19.716Z,31.65
2019-04-07T08:16:50.145Z,33.33
2019-04-07T08:19:20.195Z,32.50
2019-04-07T08:21:50.710Z,33.02
2019-04-07T08:24:21.842Z,32.10
2019-04-07T08:26:54.032Z,33.60
2019-04-07T08:29:23.198Z,33.73
2019-04-07T08:31:55.343Z,34.70
2019-04-07T08:34:24.480Z,34.20
2019-04-07T08:36:54.256Z,34.30
2019-04-07T08:39:26.665Z,35.90
2019-04-07T08:41:56.064Z,37.25
2019-04-07T08:44:29.274Z,35.98
2019-04-07T08:46:58.951Z,35.58
2019-04-07T08:49:32.345Z,37.45
2019-04-07T08:52:03.943Z,37.10
2019-04-07T08:54:32.906Z,33.98
2019-04-07T08:57:07.007Z,33.58
2019-04-07T08:59:39.876Z,33.83
2019-04-07T09:02:08.665Z,33.23
2019-04-07T09:04:38.655Z,31.55
2019-04-07T09:07:09.062Z,31.62
2019-04-07T09:09:44.839Z,31.20
2019-04-07T09:12:10.454Z,31.52
2019-04-07T09:14:40.907Z,32.03
2019-04-07T09:17:38.751Z,31.33
2019-04-07T09:20:09.600Z,31.25
2019-04-07T09:22:40.723Z,32.08
2019-04-07T09:25:32.039Z,33.95
2019-04-07T09:28:22.090Z,32.90
2019-04-07T09:31:03.187Z,32.55
2019-04-07T09:33:35.885Z,33.55
2019-04-07T09:36:10.191Z,36.20
2019-04-07T09:38:51.308Z,35.92
2019-04-07T09:41:27.310Z,35.80
2019-04-07T09:44:01.139Z,36.65
2019-04-07T09:46:35.518Z,36.00
2019-04-07T09:49:16.873Z,34.18
2019-04-07T09:51:48.378Z,35.68
2019-04-07T09:54:34.883Z,35.38
2019-04-07T09:57:24.737Z,38.60
2019-04-07T10:00:02.203Z,39.05
2019-04-07T10:02:35.594Z,37.73
2019-04-07T10:05:23.871Z,37.03
2019-04-07T10:07:58.895Z,38.00
2019-04-07T10:10:33.266Z,38.70
2019-04-07T10:13:17.803Z,36.80
2019-04-07T10:15:52.152Z,38.60
2019-04-07T10:18:40.107Z,39.73
2019-04-07T10:21:26.842Z,38.05
2019-04-07T10:24:07.814Z,39.03
2019-04-07T10:26:56.244Z,40.15
2019-04-07T10:29:27.939Z,38.48
2019-04-07T10:32:16.163Z,39.15
2019-04-07T10:35:04.198Z,37.58
2019-04-07T10:37:41.837Z,39.23
2019-04-07T10:40:19.513Z,40.00
2019-04-07T10:42:57.196Z,39.03
2019-04-07T10:45:28.436Z,39.98
2019-04-07T10:48:00.344Z,39.40
2019-04-07T10:50:32.585Z,40.05
2019-04-07T10:53:15.989Z,43.95
2019-04-07T10:55:57.405Z,43.55
2019-04-07T10:58:35.312Z,44.35
2019-04-07T11:01:06.740Z,44.98
2019-04-07T11:03:53.612Z,44.13
2019-04-07T11:06:27.279Z,42.67
2019-04-07T11:09:01.850Z,43.65
2019-04-07T11:11:39.136Z,43.65
2019-04-07T11:14:19.062Z,43.13
2019-04-07T11:17:08.863Z,44.73
2019-04-07T11:19:40.663Z,43.20
2019-04-07T11:22:18.620Z,44.05
2019-04-07T11:24:56.726Z,43.50
2019-04-07T11:27:46.703Z,44.27
2019-04-07T11:30:18.714Z,45.83
2019-04-07T11:32:50.703Z,49.38
2019-04-07T11:35:37.314Z,51.37
2019-04-07T11:38:14.973Z,48.68
2019-04-07T11:40:59.456Z,46.98
2019-04-07T11:43:34.504Z,45.28
2019-04-07T11:46:06.800Z,46.23
2019-04-07T11:48:44.871Z,46.65
2019-04-07T11:51:16.609Z,44.63
2019-04-07T11:53:53.846Z,44.85
2019-04-07T11:56:26.077Z,46.25
2019-04-07T11:59:14.747Z,44.15
2019-04-07T12:02:01.916Z,45.03
2019-04-07T12:04:39.367Z,45.65
2019-04-07T12:07:23.084Z,48.17
2019-04-07T12:09:55.199Z,48.98
2019-04-07T12:12:26.766Z,51.25
2019-04-07T12:14:58.871Z,50.45
2019-04-07T12:17:46.663Z,49.75
2019-04-07T12:20:26.863Z,50.85
2019-04-07T12:23:20.391Z,50.52
2019-04-07T12:26:06.316Z,48.95
2019-04-07T12:28:53.952Z,48.87
2019-04-07T12:31:39.082Z,48.90
2019-04-07T12:34:14.100Z,49.38
2019-04-07T12:36:44.242Z,47.40
2019-04-07T12:39:35.059Z,45.83
2019-04-07T12:42:11.237Z,46.35
2019-04-07T12:44:42.828Z,45.17
2019-04-07T12:47:14.569Z,45.00
2019-04-07T12:49:51.994Z,43.65
2019-04-07T12:52:26.179Z,48.52
2019-04-07T12:54:57.209Z,46.73
2019-04-07T12:57:43.649Z,47.13
2019-04-07T13:00:15.738Z,51.23
2019-04-07T13:02:51.665Z,51.90
2019-04-07T13:05:34.495Z,53.05
2019-04-07T13:08:24.116Z,53.15
2019-04-07T13:11:20.015Z,52.58
2019-04-07T13:13:48.106Z,46.13
2019-04-07T13:16:35.976Z,44.88
2019-04-07T13:19:15.527Z,46.83
2019-04-07T13:22:03.334Z,45.65
2019-04-07T13:24:52.675Z,44.48
2019-04-07T13:27:24.692Z,44.35
2019-04-07T13:30:03.000Z,45.03
2019-04-07T13:32:43.208Z,44.48
2019-04-07T13:35:27.383Z,45.78
2019-04-07T13:38:09.305Z,47.88
2019-04-07T13:40:47.261Z,47.30
2019-04-07T13:43:18.914Z,48.63
2019-04-07T13:45:56.897Z,45.83
2019-04-07T13:48:31.200Z,47.08
2019-04-07T13:51:11.603Z,51.90
2019-04-07T13:53:59.611Z,46.18
2019-04-07T13:56:41.876Z,47.33
2019-04-07T13:59:13.848Z,45.95
2019-04-07T14:01:54.261Z,48.63
2019-04-07T14:04:41.069Z,48.45
2019-04-07T14:07:30.641Z,48.40
2019-04-07T14:10:09.115Z,48.33
2019-04-07T14:12:46.499Z,48.52
2019-04-07T14:15:21.678Z,50.23
2019-04-07T14:18:11.307Z,48.90
2019-04-07T14:20:49.691Z,48.20
2019-04-07T14:23:27.711Z,48.08
2019-04-07T14:25:59.522Z,49.48
2019-04-07T14:28:34.467Z,46.35
2019-04-07T14:31:12.813Z,50.05
2019-04-07T14:33:49.901Z,48.42
2019-04-07T14:36:27.309Z,50.85
2019-04-07T14:39:08.516Z,50.15
2019-04-07T14:42:03.337Z,51.23
2019-04-07T14:44:38.729Z,49.65
2019-04-07T14:47:14.092Z,49.75
2019-04-07T14:50:01.943Z,51.30
2019-04-07T14:52:50.035Z,53.33
2019-04-07T14:55:31.503Z,52.30
2019-04-07T14:58:20.451Z,51.60
2019-04-07T15:01:06.718Z,52.03
2019-04-07T15:03:36.400Z,49.70
2019-04-07T15:06:06.592Z,51.98
2019-04-07T15:08:55.288Z,56.83
2019-04-07T15:11:27.009Z,54.75
2019-04-07T15:13:57.777Z,55.83
2019-04-07T15:16:28.598Z,56.18
2019-04-07T15:18:58.730Z,55.17
2019-04-07T15:21:28.703Z,54.05
2019-04-07T15:24:01.744Z,54.27
2019-04-07T15:26:30.219Z,55.23
2019-04-07T15:29:04.667Z,55.58
2019-04-07T15:31:33.091Z,54.45
2019-04-07T15:34:08.657Z,55.38
2019-04-07T15:36:36.412Z,53.33
2019-04-07T15:39:08.747Z,52.98
2019-04-07T15:41:40.611Z,53.83
2019-04-07T15:44:11.923Z,52.48
2019-04-07T15:46:42.679Z,53.13
2019-04-07T15:49:12.748Z,54.60
2019-04-07T15:51:43.199Z,53.40
2019-04-07T15:54:13.526Z,56.92
2019-04-07T15:56:48.074Z,54.33
2019-04-07T15:59:17.637Z,52.95
2019-04-07T16:01:47.248Z,52.67
2019-04-07T16:04:18.684Z,52.03
2019-04-07T16:06:50.375Z,53.78
2019-04-07T16:09:31.466Z,54.70
2019-04-07T16:11:56.923Z,52.93
2019-04-07T16:14:27.429Z,52.73
2019-04-07T16:17:02.127Z,54.40
2019-04-07T16:19:39.666Z,53.15
2019-04-07T16:22:01.563Z,54.05
2019-04-07T16:24:31.348Z,54.10
2019-04-07T16:27:03.969Z,54.45
2019-04-07T16:29:33.010Z,56.18
2019-04-07T16:32:03.043Z,55.48
2019-04-07T16:34:34.878Z,56.75
2019-04-07T16:37:06.240Z,58.42
2019-04-07T16:39:37.464Z,58.42
2019-04-07T16:42:07.404Z,57.85
2019-04-07T16:44:41.818Z,61.73
2019-04-07T16:47:19.208Z,62.25
2019-04-07T16:49:44.649Z,58.25
2019-04-07T16:52:13.488Z,61.20
2019-04-07T16:54:44.977Z,61.08
2019-04-07T16:57:16.209Z,63.23
2019-04-07T16:59:46.782Z,62.17
2019-04-07T17:02:17.898Z,61.00
2019-04-07T17:04:48.350Z,62.55
2019-04-07T17:07:20.801Z,64.53
2019-04-07T17:09:50.864Z,65.95
2019-04-07T17:12:20.900Z,65.00
2019-04-07T17:14:51.146Z,63.50
2019-04-07T17:17:22.979Z,63.70
2019-04-07T17:19:58.194Z,63.90
2019-04-07T17:22:27.235Z,64.40
2019-04-07T17:25:00.314Z,57.85
2019-04-07T17:27:29.139Z,58.30
2019-04-07T17:29:59.435Z,59.35
2019-04-07T17:32:33.171Z,60.15
2019-04-07T17:35:00.935Z,60.83
2019-04-07T17:37:30.962Z,58.80
2019-04-07T17:40:02.604Z,60.30
2019-04-07T17:42:33.503Z,63.05
2019-04-07T17:45:23.594Z,63.20
2019-04-07T17:48:12.821Z,63.38
2019-04-07T17:50:47.671Z,61.55
2019-04-07T17:53:21.274Z,62.73
2019-04-07T17:55:57.975Z,60.30
2019-04-07T17:58:40.786Z,60.45
2019-04-07T18:01:29.853Z,59.58
2019-04-07T18:04:09.317Z,59.73
2019-04-07T18:06:48.190Z,59.05
2019-04-07T18:09:34.428Z,58.90
2019-04-07T18:12:22.311Z,63.10
2019-04-07T18:15:10.358Z,61.25
2019-04-07T18:17:51.255Z,60.98
2019-04-07T18:20:29.664Z,60.03
2019-04-07T18:23:08.111Z,60.33
2019-04-07T18:25:50.900Z,62.38
2019-04-07T18:28:32.611Z,58.45
2019-04-07T18:31:11.696Z,62.98
2019-04-07T18:33:47.511Z,61.98
2019-04-07T18:36:16.653Z,62.58
2019-04-07T18:38:49.616Z,64.75
2019-04-07T18:41:36.683Z,62.70
2019-04-07T18:44:09.029Z,66.25
2019-04-07T18:46:42.220Z,62.50
2019-04-07T18:49:23.846Z,60.30
2019-04-07T18:51:55.787Z,62.80
2019-04-07T18:54:38.917Z,64.35
2019-04-07T18:57:11.602Z,71.05
2019-04-07T19:00:03.037Z,63.83
2019-04-07T19:02:46.100Z,63.10
2019-04-07T19:05:34.505Z,64.22
2019-04-07T19:08:17.365Z,63.90
2019-04-07T19:10:52.936Z,66.28
2019-04-07T19:13:34.632Z,68.17
2019-04-07T19:16:19.532Z,65.47
2019-04-07T19:18:53.200Z,65.83
2019-04-07T19:21:46.071Z,70.50
2019-04-07T19:24:17.141Z,70.52
2019-04-07T19:26:56.228Z,69.22
2019-04-07T19:29:28.588Z,71.00
2019-04-07T19:32:17.971Z,70.70
2019-04-07T19:34:51.585Z,70.47
2019-04-07T19:37:26.286Z,74.00
2019-04-07T19:40:12.709Z,70.08
2019-04-07T19:42:47.072Z,69.92
2019-04-07T19:45:22.894Z,69.35
2019-04-07T19:48:06.417Z,71.72
2019-04-07T19:50:38.086Z,70.55
2019-04-07T19:53:12.098Z,67.97
2019-04-07T19:55:42.727Z,71.17
2019-04-07T19:58:14.596Z,70.42
2019-04-07T20:00:55.029Z,70.10
2019-04-07T20:03:24.594Z,70.65
2019-04-07T20:06:12.943Z,74.85
2019-04-07T20:09:05.067Z,76.02
2019-04-07T20:11:51.504Z,73.67
2019-04-07T20:14:28.787Z,69.72
2019-04-07T20:17:06.299Z,66.92
2019-04-07T20:19:55.871Z,66.82
2019-04-07T20:22:41.481Z,66.28
2019-04-07T20:25:15.995Z,64.50
2019-04-07T20:27:59.418Z,66.87
2019-04-07T20:30:50.067Z,66.00
2019-04-07T20:33:39.378Z,66.57
2019-04-07T20:36:28.751Z,66.35
2019-04-07T20:39:03.981Z,65.47
2019-04-07T20:41:43.074Z,66.53
2019-04-07T20:44:34.425Z,65.17
2019-04-07T20:47:22.996Z,64.82
2019-04-07T20:50:07.656Z,63.95
2019-04-07T20:52:42.848Z,62.23
2019-04-07T20:55:26.599Z,61.68
2019-04-07T20:58:17.218Z,62.65
2019-04-07T21:00:52.228Z,64.15
2019-04-07T21:03:28.590Z,63.50
2019-04-07T21:06:17.456Z,61.37
2019-04-07T21:09:02.763Z,61.92
2019-04-07T21:11:36.443Z,63.78
2019-04-07T21:14:07.683Z,64.25
2019-04-07T21:16:40.033Z,66.25
2019-04-07T21:19:12.456Z,65.70
2019-04-07T21:22:00.130Z,64.22
2019-04-07T21:24:45.474Z,62.20
2019-04-07T21:27:17.382Z,63.60
2019-04-07T21:29:59.233Z,65.28
2019-04-07T21:32:40.595Z,61.30
2019-04-07T21:35:12.773Z,61.33
2019-04-07T21:37:49.357Z,64.60
2019-04-07T21:40:21.895Z,66.10
2019-04-07T21:43:02.716Z,62.95
2019-04-07T21:45:43.628Z,63.30
2019-04-07T21:48:11.790Z,65.35
2019-04-07T21:50:46.323Z,63.48
2019-04-07T21:53:19.628Z,65.60
2019-04-07T21:56:03.971Z,64.35
2019-04-07T21:58:44.323Z,63.80
2019-04-07T22:01:37.722Z,64.32
2019-04-07T22:04:11.350Z,66.25
2019-04-07T22:06:42.830Z,63.95
2019-04-07T22:09:16.691Z,63.68
2019-04-07T22:11:47.220Z,67.80
2019-04-07T22:14:17.235Z,65.67
2019-04-07T22:16:48.973Z,64.70
2019-04-07T22:19:20.172Z,65.32
2019-04-07T22:21:53.259Z,65.97
2019-04-07T22:24:21.936Z,68.83
2019-04-07T22:26:53.130Z,64.95
2019-04-07T22:29:23.350Z,68.10
2019-04-07T22:31:55.553Z,68.55
2019-04-07T22:34:29.796Z,69.03
2019-04-07T22:36:58.978Z,66.53
2019-04-07T22:39:30.751Z,66.97
2019-04-07T22:42:02.233Z,67.00
2019-04-07T22:44:32.409Z,69.45
2019-04-07T22:47:02.842Z,67.60
2019-04-07T22:49:33.524Z,66.35
2019-04-07T22:52:05.524Z,67.75
2019-04-07T22:54:37.793Z,67.87
2019-04-07T22:57:12.703Z,66.20
2019-04-07T22:59:39.873Z,65.72
2019-04-07T23:02:09.836Z,63.55
2019-04-07T23:04:40.519Z,65.70
2019-04-07T23:07:10.416Z,64.62
2019-04-07T23:09:41.239Z,61.02
2019-04-07T23:12:11.390Z,66.30
2019-04-07T23:14:42.166Z,63.92
2019-04-07T23:17:12.081Z,60.23
2019-04-07T23:19:42.075Z,60.17
2019-04-07T23:22:13.777Z,58.28
2019-04-07T23:24:43.907Z,58.78
2019-04-07T23:27:14.522Z,58.60
2019-04-07T23:29:44.650Z,55.92
2019-04-07T23:32:14.534Z,57.45
2019-04-07T23:34:44.362Z,57.17
2019-04-07T23:37:14.478Z,57.80
2019-04-07T23:39:46.097Z,61.98
2019-04-07T23:42:15.875Z,62.20
2019-04-07T23:44:45.795Z,61.53
2019-04-07T23:47:15.847Z,61.60
2019-04-07T23:49:46.828Z,62.93
2019-04-07T23:52:16.754Z,60.52
2019-04-07T23:54:46.681Z,60.63
2019-04-07T23:57:17.717Z,64.72
2019-04-07T23:59:48.585Z,61.95
